createdAt,value
2017-11-03T00:01:44.107Z,55.70
2017-11-03T00:04:13.468Z,78.60
2017-11-03T00:09:11.147Z,58.40
2017-11-03T00:11:38.676Z,50.12
2017-11-03T00:16:38.619Z,62.30
2017-11-03T00:19:05.788Z,58.85
2017-11-03T00:21:33.914Z,70.30
2017-11-03T00:24:00.601Z,64.78
2017-11-03T00:28:58.344Z,48.03
2017-11-03T00:31:25.055Z,52.47
2017-11-03T00:33:56.040Z,61.05
2017-11-03T00:36:24.087Z,54.75
2017-11-03T00:41:24.120Z,48.30
2017-11-03T00:43:51.975Z,47.25
2017-11-03T00:46:19.157Z,46.55
2017-11-03T00:48:46.787Z,49.42
2017-11-03T00:51:14.845Z,47.28
2017-11-03T00:53:43.136Z,52.25
2017-11-03T00:56:11.808Z,54.88
2017-11-03T00:58:41.092Z,53.17
2017-11-03T01:01:08.704Z,48.65
2017-11-03T01:03:37.241Z,49.92
2017-11-03T01:06:05.123Z,59.22
2017-11-03T01:08:33.292Z,49.50
2017-11-03T01:11:01.175Z,55.20
2017-11-03T01:15:59.863Z,66.70
2017-11-03T01:18:26.572Z,63.28
2017-11-03T01:20:53.672Z,54.70
2017-11-03T01:23:20.420Z,64.05
2017-11-03T01:25:47.910Z,63.83
2017-11-03T01:28:14.631Z,62.05
2017-11-03T01:30:41.416Z,51.97
2017-11-03T01:33:12.153Z,72.07
2017-11-03T01:35:43.334Z,68.00
2017-11-03T01:38:12.571Z,57.22
2017-11-03T01:40:41.078Z,49.45
2017-11-03T01:43:09.556Z,60.65
2017-11-03T01:45:37.141Z,79.10
2017-11-03T01:48:04.015Z,62.50
2017-11-03T01:50:31.559Z,54.80
2017-11-03T01:53:00.536Z,51.33
2017-11-03T01:55:27.523Z,53.87
2017-11-03T01:57:54.749Z,105.93
2017-11-03T02:00:22.599Z,82.57
2017-11-03T02:02:50.108Z,81.10
2017-11-03T02:05:18.972Z,78.95
2017-11-03T02:07:45.691Z,69.68
2017-11-03T02:10:13.492Z,57.08
2017-11-03T02:12:40.199Z,61.70
2017-11-03T02:15:08.684Z,64.03
2017-11-03T02:17:36.606Z,76.43
2017-11-03T02:25:05.782Z,57.45
2017-11-03T02:27:33.491Z,49.92
2017-11-03T02:30:01.141Z,54.53
2017-11-03T02:32:28.232Z,66.60
2017-11-03T02:34:54.996Z,58.28
2017-11-03T02:37:23.645Z,55.60
2017-11-03T02:39:51.940Z,61.80
2017-11-03T02:42:20.945Z,51.97
2017-11-03T02:44:48.521Z,64.15
2017-11-03T02:47:15.635Z,76.68
2017-11-03T02:49:44.660Z,137.37
2017-11-03T02:52:11.608Z,111.15
2017-11-03T02:54:38.319Z,109.45
2017-11-03T02:59:36.943Z,97.37
2017-11-03T03:02:03.672Z,93.82
2017-11-03T03:04:30.380Z,78.82
2017-11-03T03:06:57.063Z,81.05
2017-11-03T03:09:25.200Z,108.97
2017-11-03T03:14:22.903Z,149.68
2017-11-03T03:16:50.991Z,112.62
2017-11-03T03:19:20.250Z,130.05
2017-11-03T03:21:48.180Z,115.30
2017-11-03T03:24:16.454Z,97.18
2017-11-03T03:26:44.162Z,97.45
2017-11-03T03:29:10.888Z,174.38
2017-11-03T03:31:37.575Z,116.70
2017-11-03T03:34:07.934Z,106.07
2017-11-03T03:36:35.294Z,97.32
2017-11-03T03:41:38.852Z,268.83
2017-11-03T03:44:06.955Z,151.87
2017-11-03T03:46:35.191Z,196.82
2017-11-03T03:49:03.609Z,151.30
2017-11-03T03:51:31.031Z,137.12
2017-11-03T03:54:00.307Z,142.70
2017-11-03T03:56:27.531Z,187.37
2017-11-03T03:58:55.713Z,138.20
2017-11-03T04:01:22.698Z,123.03
2017-11-03T04:03:50.349Z,127.00
2017-11-03T04:06:17.368Z,111.30
2017-11-03T04:08:44.056Z,150.18
2017-11-03T04:11:10.787Z,216.32
2017-11-03T04:13:37.780Z,105.87
2017-11-03T04:18:36.403Z,109.03
2017-11-03T04:21:03.506Z,142.93
2017-11-03T04:23:30.195Z,213.70
2017-11-03T04:25:56.923Z,237.07
2017-11-03T04:28:24.390Z,206.65
2017-11-03T04:30:51.099Z,188.68
2017-11-03T04:33:20.334Z,179.73
2017-11-03T04:35:47.727Z,146.60
2017-11-03T04:38:14.469Z,112.78
2017-11-03T04:40:41.195Z,144.23
2017-11-03T04:43:08.594Z,136.88
2017-11-03T04:45:36.156Z,179.55
2017-11-03T04:48:03.227Z,129.48
2017-11-03T04:50:33.407Z,143.48
2017-11-03T04:53:00.812Z,138.52
2017-11-03T04:55:27.780Z,135.82
2017-11-03T04:57:55.462Z,94.45
2017-11-03T05:00:26.231Z,196.07
2017-11-03T05:05:25.913Z,184.35
2017-11-03T05:07:52.672Z,119.82
2017-11-03T05:10:19.415Z,127.12
2017-11-03T05:12:47.012Z,181.80
2017-11-03T05:15:15.613Z,159.18
2017-11-03T05:17:43.017Z,127.78
2017-11-03T05:20:09.735Z,126.47
2017-11-03T05:22:41.592Z,244.98
2017-11-03T05:25:09.120Z,223.20
2017-11-03T05:27:35.831Z,151.48
2017-11-03T05:30:04.404Z,190.32
2017-11-03T05:32:38.696Z,104.65
2017-11-03T05:35:05.427Z,126.32
2017-11-03T05:37:32.117Z,160.60
2017-11-03T05:40:03.456Z,177.05
2017-11-03T05:45:02.111Z,164.90
2017-11-03T05:47:32.976Z,150.90
2017-11-03T05:50:00.446Z,157.02
2017-11-03T05:52:28.440Z,188.00
2017-11-03T05:57:28.480Z,121.40
2017-11-03T05:59:55.303Z,178.57
2017-11-03T06:02:22.896Z,162.18
2017-11-03T06:04:49.592Z,170.25
2017-11-03T06:07:17.845Z,162.00
2017-11-03T06:09:44.540Z,253.55
2017-11-03T06:12:11.251Z,175.60
2017-11-03T06:14:38.643Z,241.05
2017-11-03T06:17:05.357Z,226.23
2017-11-03T06:19:32.402Z,196.10
2017-11-03T06:21:59.390Z,163.80
2017-11-03T06:24:26.514Z,190.05
2017-11-03T06:26:53.633Z,186.35
2017-11-03T06:29:20.649Z,617.85
2017-11-03T06:31:47.394Z,382.08
2017-11-03T06:34:15.239Z,484.58
2017-11-03T06:44:30.440Z,207.23
2017-11-03T06:46:57.840Z,284.85
2017-11-03T06:49:25.000Z,661.85
2017-11-03T06:51:52.030Z,320.25
2017-11-03T06:54:19.674Z,242.00
2017-11-03T06:56:46.420Z,201.40
2017-11-03T06:59:13.107Z,233.07
2017-11-03T07:01:39.822Z,520.35
2017-11-03T07:04:06.605Z,353.02
2017-11-03T07:06:33.372Z,281.40
2017-11-03T07:09:00.775Z,263.12
2017-11-03T07:11:29.806Z,363.52
2017-11-03T07:13:57.663Z,319.90
2017-11-03T07:16:25.283Z,270.83
2017-11-03T07:18:53.474Z,262.60
2017-11-03T07:21:23.218Z,178.85
2017-11-03T07:23:50.753Z,262.33
2017-11-03T07:26:17.854Z,471.35
2017-11-03T07:28:44.555Z,225.73
2017-11-03T07:31:11.658Z,195.05
2017-11-03T07:33:39.134Z,231.95
2017-11-03T07:36:06.265Z,285.98
2017-11-03T07:38:33.005Z,258.52
2017-11-03T07:40:59.719Z,207.65
2017-11-03T07:43:26.870Z,239.30
2017-11-03T07:45:55.346Z,192.98
2017-11-03T07:48:22.063Z,233.85
2017-11-03T07:50:49.219Z,188.73
2017-11-03T07:53:16.828Z,160.98
2017-11-03T07:55:48.735Z,266.50
2017-11-03T07:58:15.860Z,187.88
2017-11-03T08:00:47.412Z,194.55
2017-11-03T08:03:15.040Z,241.02
2017-11-03T08:05:41.743Z,210.70
2017-11-03T08:08:08.473Z,170.68
2017-11-03T08:10:37.311Z,175.23
2017-11-03T08:13:05.633Z,190.52
2017-11-03T08:15:34.400Z,156.70
2017-11-03T08:18:03.915Z,135.73
2017-11-03T08:20:31.341Z,120.50
2017-11-03T08:28:03.933Z,123.70
2017-11-03T08:30:31.434Z,122.15
2017-11-03T08:32:59.142Z,115.60
2017-11-03T08:35:26.088Z,134.80
2017-11-03T08:37:54.060Z,145.05
2017-11-03T08:40:21.491Z,171.95
2017-11-03T08:42:48.916Z,115.97
2017-11-03T08:45:16.323Z,120.07
2017-11-03T08:47:43.102Z,134.90
2017-11-03T08:50:10.711Z,120.65
2017-11-03T08:52:38.120Z,135.35
2017-11-03T08:55:05.254Z,122.62
2017-11-03T08:57:32.003Z,123.75
2017-11-03T08:59:58.716Z,114.03
2017-11-03T09:02:25.859Z,117.82
2017-11-03T09:04:53.507Z,110.88
2017-11-03T09:07:22.011Z,126.72
2017-11-03T09:09:50.785Z,128.45
2017-11-03T09:12:17.471Z,111.03
2017-11-03T09:14:46.356Z,132.48
2017-11-03T09:17:13.431Z,118.45
2017-11-03T09:19:40.679Z,106.37
2017-11-03T09:22:07.367Z,96.53
2017-11-03T09:24:34.950Z,116.62
2017-11-03T09:27:03.839Z,97.68
2017-11-03T09:29:30.543Z,94.03
2017-11-03T09:31:57.677Z,92.20
2017-11-03T09:34:25.347Z,101.55
2017-11-03T09:36:53.186Z,89.25
2017-11-03T09:39:21.426Z,83.60
2017-11-03T09:41:48.124Z,88.32
2017-11-03T09:44:15.078Z,78.45
2017-11-03T09:46:41.779Z,80.85
2017-11-03T09:49:10.046Z,69.22
2017-11-03T09:54:10.575Z,82.82
2017-11-03T09:56:37.508Z,73.30
2017-11-03T09:59:05.832Z,69.43
2017-11-03T10:01:33.671Z,63.55
2017-11-03T10:06:33.819Z,58.22
2017-11-03T10:09:00.784Z,62.45
2017-11-03T10:11:28.661Z,67.37
2017-11-03T10:13:56.227Z,59.65
2017-11-03T10:16:22.983Z,59.15
2017-11-03T10:18:49.695Z,57.30
2017-11-03T10:21:16.423Z,55.53
2017-11-03T10:23:43.161Z,52.55
2017-11-03T10:26:10.768Z,55.55
2017-11-03T10:28:37.887Z,49.90
2017-11-03T10:31:04.819Z,54.22
2017-11-03T10:33:32.240Z,50.35
2017-11-03T10:35:59.695Z,49.85
2017-11-03T10:38:27.652Z,54.42
2017-11-03T10:40:56.188Z,52.10
2017-11-03T10:43:23.108Z,52.10
2017-11-03T10:45:50.491Z,48.83
2017-11-03T10:49:17.595Z,49.70
2017-11-03T10:51:46.412Z,50.17
2017-11-03T10:54:13.428Z,44.83
2017-11-03T10:56:40.124Z,47.28
2017-11-03T10:59:07.664Z,46.50
2017-11-03T11:01:34.347Z,52.38
2017-11-03T11:04:01.318Z,45.03
2017-11-03T11:06:30.668Z,40.60
2017-11-03T11:08:57.812Z,46.13
2017-11-03T11:11:24.516Z,45.38
2017-11-03T11:13:51.207Z,37.92
2017-11-03T11:16:18.705Z,39.95
2017-11-03T11:18:45.395Z,43.65
2017-11-03T11:21:12.174Z,45.33
2017-11-03T11:23:39.112Z,47.00
2017-11-03T11:26:07.204Z,53.03
2017-11-03T11:28:33.891Z,51.83
2017-11-03T11:31:00.608Z,50.17
2017-11-03T11:33:27.286Z,47.83
2017-11-03T11:35:53.988Z,44.83
2017-11-03T11:38:21.459Z,46.80
2017-11-03T11:40:50.900Z,44.78
2017-11-03T11:43:17.587Z,46.30
2017-11-03T11:45:44.300Z,49.78
2017-11-03T11:48:11.091Z,46.40
2017-11-03T11:50:39.334Z,47.25
2017-11-03T11:53:06.316Z,49.00
2017-11-03T11:55:33.983Z,47.62
2017-11-03T11:58:01.454Z,47.50
2017-11-03T12:00:28.395Z,48.08
2017-11-03T12:02:55.075Z,46.20
2017-11-03T12:05:22.483Z,49.45
2017-11-03T12:07:49.180Z,46.42
2017-11-03T12:10:15.960Z,48.70
2017-11-03T12:12:42.654Z,49.60
2017-11-03T12:15:09.375Z,45.30
2017-11-03T12:17:36.292Z,45.40
2017-11-03T12:20:03.040Z,48.33
2017-11-03T12:22:29.752Z,45.40
2017-11-03T12:24:56.464Z,44.72
2017-11-03T12:27:23.152Z,47.60
2017-11-03T12:29:49.844Z,50.53
2017-11-03T12:32:16.564Z,44.50
2017-11-03T12:34:43.972Z,44.97
2017-11-03T12:37:10.677Z,44.25
2017-11-03T12:39:37.363Z,46.25
2017-11-03T12:42:04.084Z,50.05
2017-11-03T12:44:30.767Z,47.08
2017-11-03T12:46:58.194Z,42.70
2017-11-03T12:49:24.883Z,45.53
2017-11-03T12:51:51.817Z,40.90
2017-11-03T12:54:18.512Z,42.22
2017-11-03T12:56:45.227Z,42.13
2017-11-03T12:59:11.916Z,41.45
2017-11-03T13:01:38.619Z,37.72
2017-11-03T13:04:05.307Z,40.35
2017-11-03T13:06:32.055Z,44.83
2017-11-03T13:08:58.747Z,42.17
2017-11-03T13:11:25.762Z,40.03
2017-11-03T13:13:52.446Z,37.90
2017-11-03T13:16:19.819Z,41.60
2017-11-03T13:18:46.504Z,41.45
2017-11-03T13:21:13.211Z,41.15
2017-11-03T13:23:39.899Z,42.85
2017-11-03T13:26:06.943Z,39.05
2017-11-03T13:28:33.627Z,39.78
2017-11-03T13:31:00.331Z,42.60
2017-11-03T13:33:27.015Z,39.15
2017-11-03T13:35:53.719Z,39.90
2017-11-03T13:38:20.411Z,35.17
2017-11-03T13:40:47.122Z,34.20
2017-11-03T13:43:13.806Z,37.38
2017-11-03T13:45:40.496Z,34.10
2017-11-03T13:48:07.210Z,39.30
2017-11-03T13:50:33.899Z,36.88
2017-11-03T13:53:00.604Z,36.75
2017-11-03T13:55:27.291Z,35.15
2017-11-03T13:57:54.243Z,38.70
2017-11-03T14:00:21.219Z,35.92
2017-11-03T14:02:47.928Z,35.30
2017-11-03T14:05:14.618Z,32.83
2017-11-03T14:07:41.327Z,30.52
2017-11-03T14:10:08.006Z,31.37
2017-11-03T14:12:34.936Z,33.30
2017-11-03T14:15:01.977Z,30.52
2017-11-03T14:17:28.683Z,29.75
2017-11-03T14:19:55.376Z,29.60
2017-11-03T14:22:22.087Z,31.77
2017-11-03T14:24:48.781Z,30.75
2017-11-03T14:27:15.491Z,31.02
2017-11-03T14:29:42.183Z,29.70
2017-11-03T14:32:09.119Z,30.75
2017-11-03T14:34:36.243Z,24.90
2017-11-03T14:37:02.943Z,27.50
2017-11-03T14:39:29.631Z,28.83
2017-11-03T14:41:56.711Z,30.15
2017-11-03T14:44:23.399Z,28.75
2017-11-03T14:46:50.110Z,25.70
2017-11-03T14:49:16.809Z,28.70
2017-11-03T14:51:43.520Z,26.73
2017-11-03T14:54:10.205Z,26.90
2017-11-03T14:56:37.603Z,25.48
2017-11-03T14:59:04.315Z,26.50
2017-11-03T15:01:31.696Z,27.58
2017-11-03T15:03:58.406Z,28.80
2017-11-03T15:06:25.439Z,25.05
2017-11-03T15:08:52.147Z,24.42
2017-11-03T15:11:18.844Z,21.48
2017-11-03T15:13:45.788Z,24.05
2017-11-03T15:16:12.895Z,26.42
2017-11-03T15:18:39.608Z,26.62
2017-11-03T15:21:06.539Z,24.95
2017-11-03T15:23:33.252Z,24.27
2017-11-03T15:26:00.235Z,22.98
2017-11-03T15:28:26.948Z,26.40
2017-11-03T15:30:53.638Z,24.58
2017-11-03T15:33:20.752Z,23.55
2017-11-03T15:35:47.711Z,28.00
2017-11-03T15:38:14.416Z,26.70
2017-11-03T15:40:41.107Z,28.50
2017-11-03T15:43:07.812Z,24.58
2017-11-03T15:45:34.491Z,25.45
2017-11-03T15:48:01.194Z,26.90
2017-11-03T15:50:27.885Z,25.62
2017-11-03T15:52:54.878Z,27.23
2017-11-03T15:55:21.568Z,27.45
2017-11-03T15:57:48.276Z,27.70
2017-11-03T16:00:14.956Z,30.52
2017-11-03T16:02:41.659Z,29.45
2017-11-03T16:05:08.351Z,25.60
2017-11-03T16:07:35.061Z,33.55
2017-11-03T16:10:01.752Z,33.47
2017-11-03T16:12:28.435Z,35.63
2017-11-03T16:14:55.563Z,31.90
2017-11-03T16:17:22.271Z,31.40
2017-11-03T16:19:48.976Z,38.65
2017-11-03T16:22:15.661Z,34.92
2017-11-03T16:24:42.383Z,35.05
2017-11-03T16:27:09.068Z,38.40
2017-11-03T16:29:35.776Z,38.45
2017-11-03T16:32:02.469Z,34.78
2017-11-03T16:34:29.180Z,34.80
2017-11-03T16:36:55.867Z,36.55
2017-11-03T16:39:22.795Z,35.17
2017-11-03T16:41:49.488Z,30.90
2017-11-03T16:44:16.200Z,36.78
2017-11-03T16:46:42.908Z,40.58
2017-11-03T16:49:09.611Z,45.45
2017-11-03T16:51:36.304Z,37.85
2017-11-03T16:54:03.012Z,41.08
2017-11-03T16:56:29.699Z,37.55
2017-11-03T16:58:56.417Z,31.73
2017-11-03T17:01:23.390Z,43.80
2017-11-03T17:03:50.100Z,40.33
2017-11-03T17:06:16.787Z,39.22
2017-11-03T17:08:43.496Z,45.35
2017-11-03T17:11:10.447Z,44.15
2017-11-03T17:13:37.168Z,40.55
2017-11-03T17:16:03.862Z,49.03
2017-11-03T17:18:30.567Z,34.20
2017-11-03T17:20:57.255Z,48.22
2017-11-03T17:23:23.959Z,36.45
2017-11-03T17:25:50.648Z,39.67
2017-11-03T17:28:17.336Z,42.13
2017-11-03T17:30:44.040Z,41.58
2017-11-03T17:33:10.724Z,41.20
2017-11-03T17:35:37.431Z,35.83
2017-11-03T17:38:04.483Z,42.05
2017-11-03T17:40:31.203Z,43.15
2017-11-03T17:42:57.892Z,35.85
2017-11-03T17:45:24.603Z,52.65
2017-11-03T17:47:51.287Z,44.33
2017-11-03T17:50:17.991Z,51.25
2017-11-03T17:52:44.731Z,42.00
2017-11-03T17:55:11.434Z,43.87
2017-11-03T17:57:38.116Z,46.33
2017-11-03T18:00:04.814Z,45.55
2017-11-03T18:02:31.834Z,47.90
2017-11-03T18:04:58.972Z,46.72
2017-11-03T18:07:25.659Z,48.70
2017-11-03T18:09:52.372Z,43.45
2017-11-03T18:12:19.059Z,49.63
2017-11-03T18:14:45.771Z,53.85
2017-11-03T18:17:12.467Z,51.70
2017-11-03T18:19:39.195Z,48.92
2017-11-03T18:22:05.879Z,52.33
2017-11-03T18:24:32.582Z,56.37
2017-11-03T18:26:59.632Z,50.28
2017-11-03T18:29:26.353Z,46.92
2017-11-03T18:31:53.035Z,54.33
2017-11-03T18:34:20.892Z,49.47
2017-11-03T18:36:48.308Z,55.65
2017-11-03T18:39:14.990Z,46.83
2017-11-03T18:41:41.695Z,48.17
2017-11-03T18:44:08.391Z,49.28
2017-11-03T18:46:35.377Z,59.22
2017-11-03T18:49:02.067Z,53.10
2017-11-03T18:51:28.776Z,51.30
2017-11-03T18:53:55.463Z,49.20
2017-11-03T18:56:22.577Z,48.85
2017-11-03T18:58:49.263Z,48.92
2017-11-03T19:01:16.536Z,67.62
2017-11-03T19:03:43.220Z,52.83
2017-11-03T19:06:09.929Z,62.62
2017-11-03T19:08:37.000Z,56.85
2017-11-03T19:11:04.596Z,48.20
2017-11-03T19:13:31.275Z,55.65
2017-11-03T19:15:57.979Z,61.42
2017-11-03T19:18:24.676Z,54.92
2017-11-03T19:20:51.375Z,44.67
2017-11-03T19:23:18.795Z,43.40
2017-11-03T19:25:45.515Z,48.63
2017-11-03T19:28:13.011Z,43.95
2017-11-03T19:30:39.725Z,57.30
2017-11-03T19:33:06.407Z,42.10
2017-11-03T19:35:33.115Z,45.75
2017-11-03T19:37:59.804Z,41.80
2017-11-03T19:40:26.514Z,41.30
2017-11-03T19:42:53.203Z,40.92
2017-11-03T19:45:20.172Z,45.63
2017-11-03T19:47:47.088Z,46.15
2017-11-03T19:50:14.035Z,43.10
2017-11-03T19:52:41.067Z,45.70
2017-11-03T19:55:09.080Z,39.03
2017-11-03T19:57:35.812Z,35.10
2017-11-03T20:00:02.543Z,40.30
2017-11-03T20:02:29.515Z,36.95
2017-11-03T20:04:56.203Z,39.15
2017-11-03T20:07:23.478Z,32.50
2017-11-03T20:09:50.167Z,31.87
2017-11-03T20:12:16.855Z,32.22
2017-11-03T20:14:43.567Z,33.00
2017-11-03T20:17:10.247Z,38.45
2017-11-03T20:19:36.956Z,37.50
2017-11-03T20:22:04.171Z,40.12
2017-11-03T20:24:31.211Z,37.42
2017-11-03T20:26:57.899Z,36.50
2017-11-03T20:29:25.121Z,34.17
2017-11-03T20:31:51.840Z,35.40
2017-11-03T20:34:18.535Z,35.35
2017-11-03T20:36:45.243Z,36.55
2017-11-03T20:39:11.951Z,34.65
2017-11-03T20:41:39.784Z,31.75
2017-11-03T20:44:06.896Z,35.97
2017-11-03T20:46:33.602Z,35.38
2017-11-03T20:49:02.186Z,35.50
2017-11-03T20:51:32.921Z,37.15
2017-11-03T20:53:59.607Z,35.22
2017-11-03T20:56:26.312Z,37.33
2017-11-03T20:58:53.409Z,34.33
2017-11-03T21:01:20.135Z,36.38
2017-11-03T21:03:46.887Z,37.78
2017-11-03T21:06:13.854Z,32.85
2017-11-03T21:08:40.539Z,34.17
2017-11-03T21:11:08.290Z,39.30
2017-11-03T21:13:35.752Z,41.13
2017-11-03T21:16:04.603Z,36.47
2017-11-03T21:18:31.948Z,41.13
2017-11-03T21:20:58.635Z,40.58
2017-11-03T21:23:25.340Z,42.92
2017-11-03T21:25:52.477Z,43.35
2017-11-03T21:28:19.220Z,46.13
2017-11-03T21:30:46.020Z,38.60
2017-11-03T21:33:12.731Z,39.13
2017-11-03T21:35:41.205Z,39.88
2017-11-03T21:38:08.964Z,45.28
2017-11-03T21:40:35.910Z,37.50
2017-11-03T21:43:04.838Z,44.70
2017-11-03T21:45:32.607Z,36.58
2017-11-03T21:48:00.175Z,41.95
2017-11-03T21:50:26.911Z,39.03
2017-11-03T21:52:54.568Z,41.85
2017-11-03T21:55:21.259Z,39.25
2017-11-03T21:57:48.246Z,37.65
2017-11-03T22:00:15.005Z,46.67
2017-11-03T22:02:41.736Z,50.03
2017-11-03T22:05:08.832Z,46.85
2017-11-03T22:07:37.207Z,54.03
2017-11-03T22:10:04.368Z,39.30
2017-11-03T22:12:31.475Z,43.78
2017-11-03T22:14:59.003Z,38.58
2017-11-03T22:17:26.672Z,42.90
2017-11-03T22:19:54.572Z,48.55
2017-11-03T22:22:21.283Z,40.55
2017-11-03T22:24:49.028Z,38.85
2017-11-03T22:27:16.469Z,42.17
2017-11-03T22:29:43.406Z,46.63
2017-11-03T22:32:10.918Z,37.78
2017-11-03T22:34:37.611Z,36.28
2017-11-03T22:37:05.587Z,40.28
2017-11-03T22:39:32.644Z,38.28
2017-11-03T22:42:00.334Z,44.13
2017-11-03T22:44:29.132Z,41.20
2017-11-03T22:46:56.635Z,45.33
2017-11-03T22:49:24.248Z,45.72
2017-11-03T22:51:53.215Z,45.85
2017-11-03T22:54:20.959Z,42.92
2017-11-03T22:56:47.638Z,42.95
2017-11-03T22:59:14.585Z,37.40
2017-11-03T23:01:41.639Z,37.45
2017-11-03T23:04:10.344Z,41.58
2017-11-03T23:06:38.444Z,42.08
2017-11-03T23:09:05.159Z,33.15
2017-11-03T23:11:33.559Z,36.30
2017-11-03T23:14:00.999Z,41.05
2017-11-03T23:16:28.472Z,37.42
2017-11-03T23:18:55.935Z,45.15
2017-11-03T23:21:24.075Z,40.33
2017-11-03T23:23:51.655Z,37.40
2017-11-03T23:26:19.745Z,33.97
2017-11-03T23:28:47.182Z,37.75
2017-11-03T23:31:16.064Z,35.08
2017-11-03T23:33:43.936Z,34.35
2017-11-03T23:36:11.619Z,41.45
2017-11-03T23:38:39.307Z,38.72
2017-11-03T23:41:06.485Z,33.72
2017-11-03T23:43:33.551Z,35.10
2017-11-03T23:46:01.710Z,39.55
2017-11-03T23:48:30.013Z,39.25
2017-11-03T23:50:56.701Z,37.45
2017-11-03T23:53:23.413Z,40.80
2017-11-03T23:55:51.602Z,36.35
2017-11-03T23:58:18.745Z,36.42
